Reuben Lasker — WTEG — position and weather

sailwx.info

Track history (hours):
 
Tides and Currents Weather Stations Pressure Air Temp Water Temp Dewpoint Dewpoint Depression Visibility Wind Speed Wind Dir Waves Ship Positions

Oceanographic research ship Reuben Lasker (United States)

Last reported at 2020-Jan-24 05:00 UTC. Time now 2020-Jan-24 05:49 UTC.
Position N 36°12' W 125°00'.

Length 64 m; draft 6.1 m.

Type: Other ship. MMSI: 369970573.

Wind from 220 at 6 knots

Barometer 1022.0 mb

Date/timePositionNaut miles runAvg speedWind from/ knotsBaromVisibWave heightAir tempDewpointWater temp
2020-Jan-24 05:00N 36°12' W 125°00'1111.4 220 / 61022.0
2020-Jan-24 04:00N 36°06' W 125°12'8 7.7 240 / 51022.1
2020-Jan-24 03:00N 36°00' W 125°18'0 0.0 210 / 51021.6
2020-Jan-24 02:00N 36°00' W 125°18'0 0.0 170 / 51020.9
2020-Jan-24 01:00N 36°00' W 125°18'0 0.0 270 / 71021.6
2020-Jan-24 00:00N 36°00' W 125°18'0 0.0 250 / 41021.6
2020-Jan-23 23:00N 36°00' W 125°18'0 0.0 270 / 31021.3
2020-Jan-23 22:00N 36°00' W 125°18'0 0.0 280 / 71022.0
2020-Jan-23 21:00N 36°00' W 125°18'1312.9 260 / 131023.1
2020-Jan-23 20:00N 35°48' W 125°12'8 7.7 250 / 101023.9
2020-Jan-23 19:00N 35°42' W 125°06'1313.0 250 / 31024.2
2020-Jan-23 18:00N 35°30' W 125°00'5 4.9 250 / 71024.5
2020-Jan-23 17:00N 35°30' W 124°54'0 0.0 250 / 61024.3
2020-Jan-23 16:00N 35°30' W 124°54'10 9.8 250 / 51024.1
2020-Jan-23 15:00N 35°30' W 124°42'8 7.7 200 / 51023.5
2020-Jan-23 14:00N 35°36' W 124°36'1111.4 260 / 51023.6
2020-Jan-23 13:00N 35°42' W 124°24'1111.4 120 / 21023.1
2020-Jan-23 12:00N 35°48' W 124°12'0 0.0 320 / 61023.7
2020-Jan-23 11:00N 35°48' W 124°12'5 4.9 310 / 41024.0
2020-Jan-23 10:00N 35°48' W 124°06'1111.4 030 / 41024.1
2020-Jan-23 09:00N 35°54' W 123°54'1111.4 010 / 101024.2
2020-Jan-23 08:00N 36°00' W 123°42'1111.4 010 / 101024.8
2020-Jan-23 07:00N 36°06' W 123°30'1 1.0 010 / 121024.5
2020-Jan-23 06:00N 36°07' W 123°29'165.7
2020-Jan-23 06:00N 36°06' W 123°30'1 2.6 010 / 71025.0
2020-Jan-23 05:30N 36°07' W 123°29'4 8.5
2020-Jan-23 05:00N 36°06' W 123°24'8 7.7 350 / 121024.8
2020-Jan-23 04:00N 36°12' W 123°18'1111.4 350 / 111024.3
2020-Jan-23 03:00N 36°18' W 123°06'1111.4 360 / 71024.0
2020-Jan-23 02:00N 36°24' W 122°54'8 7.7 350 / 91023.6
2020-Jan-23 01:00N 36°30' W 122°48'0 0.0 010 / 51023.7
2020-Jan-23 00:00N 36°30' W 122°48'10 9.6 040 / 81023.9
2020-Jan-22 23:00N 36°30' W 122°36'8 7.7 020 / 61023.8
2020-Jan-22 22:00N 36°36' W 122°30'5 4.8 060 / 31024.0
2020-Jan-22 21:00N 36°36' W 122°24'0 0.0 040 / 41024.2
2020-Jan-22 20:00N 36°36' W 122°24'5 4.8 070 / 51024.8
2020-Jan-22 19:00N 36°36' W 122°18'1111.3 050 / 51025.5
2020-Jan-22 18:00N 36°42' W 122°06'1111.3 060 / 81025.5
2020-Jan-22 17:00N 36°36' W 121°54'0 0.0 310 / 11024.6
2020-Jan-22 16:00N 36°36' W 121°54'6 6.0 020 / 11024.1
2020-Jan-22 15:00N 36°42' W 121°54'8 7.7 060 / 101023.8
2020-Jan-22 14:00N 36°48' W 122°00'5 4.8 050 / 91023.4
2020-Jan-22 13:00N 36°48' W 122°06'0 0.0 080 / 81022.3
2020-Jan-22 12:00N 36°48' W 122°06'1212.0 090 / 141022.6
2020-Jan-22 11:00N 36°36' W 122°06'6 6.0 180 / 111022.4
2020-Jan-22 10:00N 36°30' W 122°06'1212.0 170 / 191022.7
2020-Jan-22 09:00N 36°18' W 122°06'8 7.7 130 / 201023.4
2020-Jan-22 08:00N 36°12' W 122°00'10 9.7 120 / 171023.5
2020-Jan-22 07:00N 36°12' W 121°48'5 4.8 110 / 81023.7
2020-Jan-22 06:00N 36°12' W 121°42'0 0.0 110 / 61023.7
2020-Jan-22 05:00N 36°12' W 121°42'1111.4 060 / 41023.2
2020-Jan-22 04:00N 36°06' W 121°54'8 7.7 140 / 91022.5
2020-Jan-22 03:00N 36°00' W 122°00'6 6.0 130 / 91022.9
2020-Jan-22 02:00N 36°06' W 122°00'8 7.7 190 / 81022.5
2020-Jan-22 01:00N 36°00' W 122°06'8 7.7 160 / 121021.8
2020-Jan-22 00:00N 35°54' W 122°12'5 4.9 170 / 111021.2
2020-Jan-21 23:00N 35°54' W 122°18'5 4.9 180 / 101021.2
2020-Jan-21 22:00N 35°54' W 122°24'8 7.7 180 / 111020.9
2020-Jan-21 21:00N 35°48' W 122°30'5 4.9 190 / 121021.4
2020-Jan-21 20:00N 35°48' W 122°36'1111.4 190 / 111022.0
2020-Jan-21 19:00N 35°42' W 122°48'8 7.7 170 / 141021.9
2020-Jan-21 18:00N 35°36' W 122°54'1111.5 170 / 151020.8
2020-Jan-21 17:00N 35°30' W 123°06'6 6.0 200 / 101021.6
2020-Jan-21 16:00N 35°36' W 123°06'6 6.0 180 / 81020.7
2020-Jan-21 15:00N 35°30' W 123°06'10 9.8 190 / 111020.2
2020-Jan-21 14:00N 35°30' W 123°18'8 7.7 190 / 101019.7
2020-Jan-21 13:00N 35°24' W 123°24'1111.5 210 / 131019.2
2020-Jan-21 12:00N 35°18' W 123°36'8 7.7 180 / 101019.2
2020-Jan-21 11:00N 35°12' W 123°42'5 4.9 200 / 81019.9
2020-Jan-21 10:00N 35°12' W 123°48'0 0.0 230 / 121019.5
2020-Jan-21 09:00N 35°12' W 123°48'1211.5 220 / 121019.6
2020-Jan-21 08:00N 35°06' W 124°00'1211.5 210 / 81019.4
2020-Jan-21 07:00N 35°00' W 124°12'8 7.8 220 / 81019.2
2020-Jan-21 06:00N 34°54' W 124°18'10 9.8 210 / 111018.7 5.4
2020-Jan-21 05:00N 34°54' W 124°30'0 0.0 230 / 91018.7
2020-Jan-21 04:00N 34°54' W 124°30'8 7.8 200 / 71017.7
2020-Jan-21 03:00N 34°48' W 124°24'8 7.8 210 / 71017.2
2020-Jan-21 02:00N 34°42' W 124°18'1313.0 250 / 71016.9
2020-Jan-21 01:00N 34°30' W 124°12'8 7.8 250 / 61016.6
2020-Jan-21 00:00N 34°24' W 124°06'8 7.8 260 / 51016.8
2020-Jan-20 23:00N 34°18' W 124°00'5 5.0 240 / 91017.2
2020-Jan-20 22:00N 34°18' W 124°06'1211.6 250 / 111017.0
2020-Jan-20 21:00N 34°24' W 123°54'5 5.0 230 / 71016.910.8 12.810.913.4
2020-Jan-20 20:00N 34°24' W 123°48'1211.6 260 / 61017.8
2020-Jan-20 19:00N 34°30' W 123°36'1211.6 220 / 71018.0
2020-Jan-20 18:00N 34°36' W 123°24'5 4.9 230 / 71018.0
2020-Jan-20 17:00N 34°36' W 123°18'5 4.9 230 / 91018.2
2020-Jan-20 16:00N 34°36' W 123°24'1211.6 240 / 71017.1
2020-Jan-20 15:00N 34°42' W 123°12'1211.5 220 / 61016.9
2020-Jan-20 14:00N 34°48' W 123°00'1211.5 190 / 31016.6
2020-Jan-20 13:00N 34°54' W 122°48'1211.5 250 / 61016.2
2020-Jan-20 12:00N 35°00' W 122°36'5 4.9 220 / 91016.5
2020-Jan-20 11:00N 35°00' W 122°42'5 4.9 270 / 81016.1
2020-Jan-20 10:00N 35°00' W 122°36'1211.5 180 / 81016.7
2020-Jan-20 09:00N 35°06' W 122°24'1211.5 240 / 21016.7
2020-Jan-20 08:00N 35°12' W 122°12'8 7.7 090 / 51016.7
2020-Jan-20 07:00N 35°18' W 122°06'5 4.9 020 / 71016.6
2020-Jan-20 06:00N 35°18' W 122°00'0 0.0 010 / 41016.8
2020-Jan-20 05:00N 35°18' W 122°00'1111.5 260 / 41017.8
2020-Jan-20 04:00N 35°24' W 121°48'1111.5 130 / 41017.1
2020-Jan-20 03:00N 35°30' W 121°36'0 0.0 200 / 31017.5
2020-Jan-20 02:00N 35°30' W 121°36'0 0.0 140 / 31016.8
2020-Jan-20 01:00N 35°30' W 121°36'10 9.8 100 / 71016.5
2020-Jan-20 00:00N 35°30' W 121°24'8 7.7 1016.310.8 13.310.513.1
2020-Jan-19 23:00N 35°36' W 121°18'5 4.9 090 / 31016.8
2020-Jan-19 22:00N 35°36' W 121°12'8 7.7 080 / 31017.5
2020-Jan-19 21:00N 35°30' W 121°06'1313.0 010 / 11018.3
2020-Jan-19 20:00N 35°18' W 121°00'8 7.7 080 / 61019.1
2020-Jan-19 19:00N 35°12' W 120°54'8 7.8 120 / 31020.9
2020-Jan-19 18:00N 35°06' W 120°48'0 0.0 120 / 91020.5
2020-Jan-19 17:00N 35°06' W 120°48'8 7.8 090 / 21020.5
2020-Jan-19 16:00N 35°00' W 120°54'0 0.0 090 / 111019.7
2020-Jan-19 15:00N 35°00' W 120°54'1211.5 090 / 81019.3
2020-Jan-19 14:00N 34°54' W 121°06'5 4.9 090 / 61018.7
2020-Jan-19 13:00N 34°54' W 121°12'0 0.0 070 / 101018.9
2020-Jan-19 12:00N 34°54' W 121°12'8 7.8 040 / 61019.2
2020-Jan-19 11:00N 34°48' W 121°18'1211.5 350 / 61019.3
2020-Jan-19 10:00N 34°42' W 121°30'0 0.0 040 / 71019.9
2020-Jan-19 09:00N 34°42' W 121°30'5 4.9 040 / 71020.7
2020-Jan-19 08:00N 34°42' W 121°36'1211.6 350 / 181021.4
2020-Jan-19 07:00N 34°36' W 121°48'1211.6 350 / 161021.7
2020-Jan-19 06:00N 34°30' W 122°00'5 4.9 350 / 161022.4
2020-Jan-19 05:00N 34°30' W 122°06'1211.6 340 / 201023.0
2020-Jan-19 04:00N 34°24' W 122°18'0 0.0 360 / 171023.5
2020-Jan-19 03:00N 34°24' W 122°18'0 0.0 010 / 201023.3
2020-Jan-19 02:00N 34°24' W 122°18'1211.6 320 / 241023.2
2020-Jan-19 01:00N 34°18' W 122°30'1211.6 320 / 221023.5
2020-Jan-19 00:00N 34°12' W 122°42'1211.6 340 / 201023.5
2020-Jan-18 23:00N 34°06' W 122°54'5 5.0 340 / 191023.8
2020-Jan-18 22:00N 34°06' W 123°00'5 5.0 340 / 131023.8
2020-Jan-18 21:00N 34°06' W 122°54'1211.6 010 / 131024.4
2020-Jan-18 20:00N 34°00' W 123°06'1211.6 350 / 141025.5
2020-Jan-18 19:00N 33°54' W 123°18'8 7.8 340 / 121026.6
2020-Jan-18 18:00N 33°48' W 123°24'1211.6 340 / 141026.7
2020-Jan-18 17:00N 33°42' W 123°36'0 0.0 340 / 121026.7
2020-Jan-18 16:00N 33°42' W 123°36'5 5.0 030 / 91026.3
2020-Jan-18 15:00N 33°42' W 123°42'1211.7 360 / 71025.6
2020-Jan-18 14:00N 33°36' W 123°54'8 7.8 1025.2
2020-Jan-18 13:00N 33°30' W 124°00'1010.0 360 / 31025.0
2020-Jan-18 12:00N 33°30' W 124°12'1211.7 150 / 31024.9
2020-Jan-18 11:00N 33°24' W 124°24'5 5.0 150 / 41025.2
2020-Jan-18 10:00N 33°24' W 124°18'6 6.0 130 / 21025.2
2020-Jan-18 09:00N 33°18' W 124°18'8 7.8 110 / 51025.6
2020-Jan-18 08:00N 33°12' W 124°12'1313.0 090 / 41026.1
2020-Jan-18 07:00N 33°00' W 124°06'8 7.8 090 / 71026.2
2020-Jan-18 06:00N 32°54' W 124°00'8 7.8 050 / 31026.4
2020-Jan-18 05:00N 32°48' W 123°54'0 0.0 060 / 11025.9
2020-Jan-18 04:00N 32°48' W 123°54'8 7.8 080 / 51025.8
2020-Jan-18 03:00N 32°54' W 123°48'1010.1 060 / 51026.0
2020-Jan-18 02:00N 32°54' W 123°36'8 7.8 010 / 51025.6
2020-Jan-18 01:00N 33°00' W 123°30'1211.7 030 / 41025.4
2020-Jan-18 00:00N 33°06' W 123°18'5 5.0 040 / 51025.2
2020-Jan-17 23:00N 33°06' W 123°12'6 6.0 050 / 51025.6
2020-Jan-17 22:00N 33°12' W 123°12'5 5.0 030 / 101025.5
2020-Jan-17 21:00N 33°12' W 123°06'1211.7 010 / 71025.8
2020-Jan-17 20:00N 33°18' W 122°54'1211.7 010 / 101026.6
2020-Jan-17 19:00N 33°24' W 122°42'1211.7 1027.0
2020-Jan-17 18:00N 33°30' W 122°30'5 5.0 010 / 101026.5
2020-Jan-17 17:00N 33°30' W 122°36'5 5.0 320 / 81025.9
2020-Jan-17 16:00N 33°30' W 122°30'5 5.0 020 / 81025.1
2020-Jan-17 15:00N 33°30' W 122°24'1211.7 010 / 111024.3
2020-Jan-17 14:00N 33°36' W 122°12'8 7.8 350 / 131023.7
2020-Jan-17 13:00N 33°42' W 122°06'1211.6 350 / 101023.2
2020-Jan-17 12:00N 33°48' W 121°54'0 0.0 350 / 131022.7
2020-Jan-17 11:00N 33°48' W 121°54'5 5.0 350 / 111023.0
2020-Jan-17 10:00N 33°48' W 121°48'8 7.8 350 / 121022.3
2020-Jan-17 09:00N 33°54' W 121°42'1211.6 340 / 151021.6
2020-Jan-17 08:00N 34°00' W 121°30'10 9.9 340 / 151021.3
2020-Jan-17 07:00N 34°00' W 121°18'8 7.8 320 / 101020.9
2020-Jan-17 06:00N 34°06' W 121°12'0 0.0 290 / 91020.2
2020-Jan-17 05:00N 34°06' W 121°12'0 0.0 310 / 41019.5
2020-Jan-17 04:00N 34°06' W 121°12'1211.6 350 / 91018.8
2020-Jan-17 03:00N 34°12' W 121°00'8 7.8 350 / 31017.8
2020-Jan-17 02:00N 34°18' W 120°54'5 5.0 010 / 151017.0
2020-Jan-17 01:00N 34°18' W 120°48'0 0.0 350 / 211016.1
2020-Jan-17 00:00N 34°18' W 120°48'1211.6 160 / 281014.5
2020-Jan-16 23:00N 34°24' W 120°36'8 7.8 140 / 331014.1
2020-Jan-16 22:00N 34°30' W 120°30'6 6.0 130 / 151015.1
2020-Jan-16 21:00N 34°24' W 120°30'0 0.0 150 / 161015.6
2020-Jan-16 20:00N 34°24' W 120°30'10 9.9 150 / 121016.8
2020-Jan-16 19:00N 34°24' W 120°18'10 9.9 160 / 141018.0
2020-Jan-16 18:00N 34°24' W 120°06'10 9.9 180 / 171017.510.8 12.2 8.115.1
2020-Jan-16 17:00N 34°24' W 119°54'5 5.0 190 / 91016.9
2020-Jan-16 16:00N 34°24' W 119°48'5 5.0 230 / 31016.7
2020-Jan-16 15:00N 34°24' W 119°42'0 0.0 210 / 51016.5
2020-Jan-16 14:00N 34°24' W 119°42'212.3 210 / 91016.7
2020-Jan-16 13:50N 34°22' W 119°43'910.4
2020-Jan-16 13:00N 34°19' W 119°53'1383.3
2020-Jan-16 13:00N 34°18' W 119°54'4 7.7 230 / 81016.2
2020-Jan-16 12:30N 34°17' W 119°58'3 5.5
2020-Jan-16 12:00N 34°16' W 120°02'2136.6
2020-Jan-16 12:00N 34°18' W 120°00'0 0.0 270 / 71015.8
2020-Jan-16 11:00N 34°18' W 120°00'0 0.0 270 / 81015.9
2020-Jan-16 10:00N 34°18' W 120°00'10 9.9 250 / 61015.6
2020-Jan-16 09:00N 34°18' W 119°48'10 9.9 230 / 41015.6
2020-Jan-16 08:00N 34°18' W 119°36'10 9.9 230 / 31016.0
2020-Jan-16 07:00N 34°18' W 119°24'6 6.0 350 / 11016.6
2020-Jan-16 06:00N 34°12' W 119°24'0 0.0 330 / 41016.2
2020-Jan-16 05:00N 34°12' W 119°24'3 6.1 310 / 71015.8
2020-Jan-16 04:26N 34°12' W 119°28'2 3.5
2020-Jan-16 04:00N 34°12' W 119°30'0 0.0 290 / 81015.6
2020-Jan-16 03:00N 34°12' W 119°30'1 5.5 280 / 71015.6
2020-Jan-16 02:45N 34°11' W 119°30'2 9.1
2020-Jan-16 02:30N 34°09' W 119°29'3 5.2
2020-Jan-16 02:00N 34°06' W 119°30'714.8 290 / 71015.3
2020-Jan-16 01:30N 33°59' W 119°30'713.9
2020-Jan-16 01:00N 33°54' W 119°36'1010.0 230 / 71015.3
2020-Jan-16 00:00N 33°54' W 119°48'4 7.0 250 / 61015.3
2020-Jan-15 23:28N 33°54' W 119°52'613.1
2020-Jan-15 23:00N 33°54' W 120°00'4 8.2 260 / 81014.9
2020-Jan-15 22:30N 33°53' W 120°05'612.1
2020-Jan-15 22:00N 33°54' W 120°12'5 5.0 300 / 91015.4
2020-Jan-15 21:00N 33°54' W 120°06'1211.6 310 / 61015.7
2020-Jan-15 20:00N 33°48' W 120°18'31908.4 310 / 171016.4
2020-Jan-15 19:59N 33°49' W 120°15'510.4
2020-Jan-15 19:30N 33°47' W 120°21'3 5.2
2020-Jan-15 19:00N 33°48' W 120°24'3 3.4 310 / 151017.4
2020-Jan-15 18:00N 33°45' W 120°26'3221.1
2020-Jan-15 18:00N 33°48' W 120°24'6 6.0 330 / 141017.6
2020-Jan-15 17:00N 33°42' W 120°24'1010.0 320 / 131017.7
2020-Jan-15 16:00N 33°42' W 120°36'8 7.8 310 / 231017.6
2020-Jan-15 15:00N 33°36' W 120°42'5 5.0 300 / 221017.210.8 11.7 9.713.3
2020-Jan-15 14:00N 33°36' W 120°48'21402.3 340 / 201017.2
2020-Jan-15 13:59N 33°35' W 120°46'2 2.3
2020-Jan-15 13:00N 33°36' W 120°48'8 7.8 340 / 201016.9
2020-Jan-15 12:00N 33°30' W 120°54'8 7.8 310 / 231017.7
2020-Jan-15 11:00N 33°24' W 121°00'1010.0 320 / 301018.5
2020-Jan-15 10:00N 33°24' W 121°12'1211.7 320 / 241019.4
2020-Jan-15 09:00N 33°18' W 121°24'8 7.8 320 / 281019.8
2020-Jan-15 08:00N 33°12' W 121°30'5 5.0 340 / 191020.6
2020-Jan-15 07:00N 33°12' W 121°24'5 5.0 350 / 201021.2
2020-Jan-15 06:00N 33°12' W 121°30'1211.7 320 / 261023.0 5.4
2020-Jan-15 05:00N 33°06' W 121°42'5 5.0 320 / 331021.4
2020-Jan-15 04:00N 33°06' W 121°48'1211.7 310 / 281021.5
2020-Jan-15 03:00N 33°00' W 122°00'1211.7 330 / 261021.7
2020-Jan-15 02:00N 32°54' W 122°12'5 5.0 1021.7
2020-Jan-15 01:00N 32°54' W 122°06'5 5.0 1021.6
2020-Jan-15 00:00N 32°54' W 122°12'1211.7 330 / 261021.7
2020-Jan-14 23:00N 32°48' W 122°24'8 7.8 340 / 271021.2
2020-Jan-14 22:00N 32°42' W 122°30'1211.8 350 / 261022.2
2020-Jan-14 21:00N 32°36' W 122°42'5 5.1 340 / 241022.5
2020-Jan-14 20:00N 32°36' W 122°48'0 0.0 020 / 141024.2
2020-Jan-14 19:00N 32°36' W 122°48'5 5.1 340 / 141025.5
2020-Jan-14 18:00N 32°36' W 122°54'8 7.8 340 / 191025.7
2020-Jan-14 17:00N 32°30' W 123°00'1211.8 340 / 141025.6
2020-Jan-14 16:00N 32°24' W 123°12'1211.8 350 / 211025.1
2020-Jan-14 15:00N 32°18' W 123°24'5 5.1 340 / 191024.6
2020-Jan-14 14:00N 32°18' W 123°30'6 6.0 010 / 181024.0
2020-Jan-14 13:00N 32°12' W 123°30'5 5.1 340 / 191023.2
2020-Jan-14 12:00N 32°12' W 123°36'8 7.9 330 / 211023.3
2020-Jan-14 11:00N 32°06' W 123°42'1010.2 330 / 211023.2
2020-Jan-14 10:00N 32°06' W 123°54'1211.8 330 / 201023.6
2020-Jan-14 09:00N 32°00' W 124°06'8 7.9 330 / 221023.9 5.4 13.311.415.2
2020-Jan-14 08:00N 31°54' W 124°12'0 0.0 010 / 201024.3
2020-Jan-14 07:00N 31°54' W 124°12'8 7.9 020 / 121024.6
2020-Jan-14 06:00N 31°48' W 124°06'8 7.9 360 / 131025.9 5.4
2020-Jan-14 05:00N 31°42' W 124°00'   010 / 171023.8
Track history (hours):
 
Tides and Currents Weather Stations Pressure Air Temp Water Temp Dewpoint Dewpoint Depression Visibility Wind Speed Wind Dir Waves Ship Positions

Oceanographic research ship Reuben Lasker (United States)

Last reported at 2020-Jan-24 05:00 UTC. Time now 2020-Jan-24 05:49 UTC.
Position N 36°12' W 125°00'.

Length 64 m; draft 6.1 m.

Type: Other ship. MMSI: 369970573.

Wind from 220 at 6 knots

Barometer 1022.0 mb

Date/timePositionNaut miles runAvg speedWind from/ knotsBaromVisibWave heightAir tempDewpointWater temp
2020-Jan-24 05:00N 36°12' W 125°00'1111.4 220 / 61022.0
2020-Jan-24 04:00N 36°06' W 125°12'8 7.7 240 / 51022.1
2020-Jan-24 03:00N 36°00' W 125°18'0 0.0 210 / 51021.6
2020-Jan-24 02:00N 36°00' W 125°18'0 0.0 170 / 51020.9
2020-Jan-24 01:00N 36°00' W 125°18'0 0.0 270 / 71021.6
2020-Jan-24 00:00N 36°00' W 125°18'0 0.0 250 / 41021.6
2020-Jan-23 23:00N 36°00' W 125°18'0 0.0 270 / 31021.3
2020-Jan-23 22:00N 36°00' W 125°18'0 0.0 280 / 71022.0
2020-Jan-23 21:00N 36°00' W 125°18'1312.9 260 / 131023.1
2020-Jan-23 20:00N 35°48' W 125°12'8 7.7 250 / 101023.9
2020-Jan-23 19:00N 35°42' W 125°06'1313.0 250 / 31024.2
2020-Jan-23 18:00N 35°30' W 125°00'5 4.9 250 / 71024.5
2020-Jan-23 17:00N 35°30' W 124°54'0 0.0 250 / 61024.3
2020-Jan-23 16:00N 35°30' W 124°54'10 9.8 250 / 51024.1
2020-Jan-23 15:00N 35°30' W 124°42'8 7.7 200 / 51023.5
2020-Jan-23 14:00N 35°36' W 124°36'1111.4 260 / 51023.6
2020-Jan-23 13:00N 35°42' W 124°24'1111.4 120 / 21023.1
2020-Jan-23 12:00N 35°48' W 124°12'0 0.0 320 / 61023.7
2020-Jan-23 11:00N 35°48' W 124°12'5 4.9 310 / 41024.0
2020-Jan-23 10:00N 35°48' W 124°06'1111.4 030 / 41024.1
2020-Jan-23 09:00N 35°54' W 123°54'1111.4 010 / 101024.2
2020-Jan-23 08:00N 36°00' W 123°42'1111.4 010 / 101024.8
2020-Jan-23 07:00N 36°06' W 123°30'1 1.0 010 / 121024.5
2020-Jan-23 06:00N 36°07' W 123°29'165.7
2020-Jan-23 06:00N 36°06' W 123°30'1 2.6 010 / 71025.0
2020-Jan-23 05:30N 36°07' W 123°29'4 8.5
2020-Jan-23 05:00N 36°06' W 123°24'8 7.7 350 / 121024.8
2020-Jan-23 04:00N 36°12' W 123°18'1111.4 350 / 111024.3
2020-Jan-23 03:00N 36°18' W 123°06'1111.4 360 / 71024.0
2020-Jan-23 02:00N 36°24' W 122°54'8 7.7 350 / 91023.6
2020-Jan-23 01:00N 36°30' W 122°48'0 0.0 010 / 51023.7
2020-Jan-23 00:00N 36°30' W 122°48'10 9.6 040 / 81023.9
2020-Jan-22 23:00N 36°30' W 122°36'8 7.7 020 / 61023.8
2020-Jan-22 22:00N 36°36' W 122°30'5 4.8 060 / 31024.0
2020-Jan-22 21:00N 36°36' W 122°24'0 0.0 040 / 41024.2
2020-Jan-22 20:00N 36°36' W 122°24'5 4.8 070 / 51024.8
2020-Jan-22 19:00N 36°36' W 122°18'1111.3 050 / 51025.5
2020-Jan-22 18:00N 36°42' W 122°06'1111.3 060 / 81025.5
2020-Jan-22 17:00N 36°36' W 121°54'0 0.0 310 / 11024.6
2020-Jan-22 16:00N 36°36' W 121°54'6 6.0 020 / 11024.1
2020-Jan-22 15:00N 36°42' W 121°54'8 7.7 060 / 101023.8
2020-Jan-22 14:00N 36°48' W 122°00'5 4.8 050 / 91023.4
2020-Jan-22 13:00N 36°48' W 122°06'0 0.0 080 / 81022.3
2020-Jan-22 12:00N 36°48' W 122°06'1212.0 090 / 141022.6
2020-Jan-22 11:00N 36°36' W 122°06'6 6.0 180 / 111022.4
2020-Jan-22 10:00N 36°30' W 122°06'1212.0 170 / 191022.7
2020-Jan-22 09:00N 36°18' W 122°06'8 7.7 130 / 201023.4
2020-Jan-22 08:00N 36°12' W 122°00'10 9.7 120 / 171023.5
2020-Jan-22 07:00N 36°12' W 121°48'5 4.8 110 / 81023.7
2020-Jan-22 06:00N 36°12' W 121°42'0 0.0 110 / 61023.7
2020-Jan-22 05:00N 36°12' W 121°42'1111.4 060 / 41023.2
2020-Jan-22 04:00N 36°06' W 121°54'8 7.7 140 / 91022.5
2020-Jan-22 03:00N 36°00' W 122°00'6 6.0 130 / 91022.9
2020-Jan-22 02:00N 36°06' W 122°00'8 7.7 190 / 81022.5
2020-Jan-22 01:00N 36°00' W 122°06'8 7.7 160 / 121021.8
2020-Jan-22 00:00N 35°54' W 122°12'5 4.9 170 / 111021.2
2020-Jan-21 23:00N 35°54' W 122°18'5 4.9 180 / 101021.2
2020-Jan-21 22:00N 35°54' W 122°24'8 7.7 180 / 111020.9
2020-Jan-21 21:00N 35°48' W 122°30'5 4.9 190 / 121021.4
2020-Jan-21 20:00N 35°48' W 122°36'1111.4 190 / 111022.0
2020-Jan-21 19:00N 35°42' W 122°48'8 7.7 170 / 141021.9
2020-Jan-21 18:00N 35°36' W 122°54'1111.5 170 / 151020.8
2020-Jan-21 17:00N 35°30' W 123°06'6 6.0 200 / 101021.6
2020-Jan-21 16:00N 35°36' W 123°06'6 6.0 180 / 81020.7
2020-Jan-21 15:00N 35°30' W 123°06'10 9.8 190 / 111020.2
2020-Jan-21 14:00N 35°30' W 123°18'8 7.7 190 / 101019.7
2020-Jan-21 13:00N 35°24' W 123°24'1111.5 210 / 131019.2
2020-Jan-21 12:00N 35°18' W 123°36'8 7.7 180 / 101019.2
2020-Jan-21 11:00N 35°12' W 123°42'5 4.9 200 / 81019.9
2020-Jan-21 10:00N 35°12' W 123°48'0 0.0 230 / 121019.5
2020-Jan-21 09:00N 35°12' W 123°48'1211.5 220 / 121019.6
2020-Jan-21 08:00N 35°06' W 124°00'1211.5 210 / 81019.4
2020-Jan-21 07:00N 35°00' W 124°12'8 7.8 220 / 81019.2
2020-Jan-21 06:00N 34°54' W 124°18'10 9.8 210 / 111018.7 5.4
2020-Jan-21 05:00N 34°54' W 124°30'0 0.0 230 / 91018.7
2020-Jan-21 04:00N 34°54' W 124°30'8 7.8 200 / 71017.7
2020-Jan-21 03:00N 34°48' W 124°24'8 7.8 210 / 71017.2
2020-Jan-21 02:00N 34°42' W 124°18'1313.0 250 / 71016.9
2020-Jan-21 01:00N 34°30' W 124°12'8 7.8 250 / 61016.6
2020-Jan-21 00:00N 34°24' W 124°06'8 7.8 260 / 51016.8
2020-Jan-20 23:00N 34°18' W 124°00'5 5.0 240 / 91017.2
2020-Jan-20 22:00N 34°18' W 124°06'1211.6 250 / 111017.0
2020-Jan-20 21:00N 34°24' W 123°54'5 5.0 230 / 71016.910.8 12.810.913.4
2020-Jan-20 20:00N 34°24' W 123°48'1211.6 260 / 61017.8
2020-Jan-20 19:00N 34°30' W 123°36'1211.6 220 / 71018.0
2020-Jan-20 18:00N 34°36' W 123°24'5 4.9 230 / 71018.0
2020-Jan-20 17:00N 34°36' W 123°18'5 4.9 230 / 91018.2
2020-Jan-20 16:00N 34°36' W 123°24'1211.6 240 / 71017.1
2020-Jan-20 15:00N 34°42' W 123°12'1211.5 220 / 61016.9
2020-Jan-20 14:00N 34°48' W 123°00'1211.5 190 / 31016.6
2020-Jan-20 13:00N 34°54' W 122°48'1211.5 250 / 61016.2
2020-Jan-20 12:00N 35°00' W 122°36'5 4.9 220 / 91016.5
2020-Jan-20 11:00N 35°00' W 122°42'5 4.9 270 / 81016.1
2020-Jan-20 10:00N 35°00' W 122°36'1211.5 180 / 81016.7
2020-Jan-20 09:00N 35°06' W 122°24'1211.5 240 / 21016.7
2020-Jan-20 08:00N 35°12' W 122°12'8 7.7 090 / 51016.7
2020-Jan-20 07:00N 35°18' W 122°06'5 4.9 020 / 71016.6
2020-Jan-20 06:00N 35°18' W 122°00'0 0.0 010 / 41016.8
2020-Jan-20 05:00N 35°18' W 122°00'1111.5 260 / 41017.8
2020-Jan-20 04:00N 35°24' W 121°48'1111.5 130 / 41017.1
2020-Jan-20 03:00N 35°30' W 121°36'0 0.0 200 / 31017.5
2020-Jan-20 02:00N 35°30' W 121°36'0 0.0 140 / 31016.8
2020-Jan-20 01:00N 35°30' W 121°36'10 9.8 100 / 71016.5
2020-Jan-20 00:00N 35°30' W 121°24'8 7.7 1016.310.8 13.310.513.1
2020-Jan-19 23:00N 35°36' W 121°18'5 4.9 090 / 31016.8
2020-Jan-19 22:00N 35°36' W 121°12'8 7.7 080 / 31017.5
2020-Jan-19 21:00N 35°30' W 121°06'1313.0 010 / 11018.3
2020-Jan-19 20:00N 35°18' W 121°00'8 7.7 080 / 61019.1
2020-Jan-19 19:00N 35°12' W 120°54'8 7.8 120 / 31020.9
2020-Jan-19 18:00N 35°06' W 120°48'0 0.0 120 / 91020.5
2020-Jan-19 17:00N 35°06' W 120°48'8 7.8 090 / 21020.5
2020-Jan-19 16:00N 35°00' W 120°54'0 0.0 090 / 111019.7
2020-Jan-19 15:00N 35°00' W 120°54'1211.5 090 / 81019.3
2020-Jan-19 14:00N 34°54' W 121°06'5 4.9 090 / 61018.7
2020-Jan-19 13:00N 34°54' W 121°12'0 0.0 070 / 101018.9
2020-Jan-19 12:00N 34°54' W 121°12'8 7.8 040 / 61019.2
2020-Jan-19 11:00N 34°48' W 121°18'1211.5 350 / 61019.3
2020-Jan-19 10:00N 34°42' W 121°30'0 0.0 040 / 71019.9
2020-Jan-19 09:00N 34°42' W 121°30'5 4.9 040 / 71020.7
2020-Jan-19 08:00N 34°42' W 121°36'1211.6 350 / 181021.4
2020-Jan-19 07:00N 34°36' W 121°48'1211.6 350 / 161021.7
2020-Jan-19 06:00N 34°30' W 122°00'5 4.9 350 / 161022.4
2020-Jan-19 05:00N 34°30' W 122°06'1211.6 340 / 201023.0
2020-Jan-19 04:00N 34°24' W 122°18'0 0.0 360 / 171023.5
2020-Jan-19 03:00N 34°24' W 122°18'0 0.0 010 / 201023.3
2020-Jan-19 02:00N 34°24' W 122°18'1211.6 320 / 241023.2
2020-Jan-19 01:00N 34°18' W 122°30'1211.6 320 / 221023.5
2020-Jan-19 00:00N 34°12' W 122°42'1211.6 340 / 201023.5
2020-Jan-18 23:00N 34°06' W 122°54'5 5.0 340 / 191023.8
2020-Jan-18 22:00N 34°06' W 123°00'5 5.0 340 / 131023.8
2020-Jan-18 21:00N 34°06' W 122°54'1211.6 010 / 131024.4
2020-Jan-18 20:00N 34°00' W 123°06'1211.6 350 / 141025.5
2020-Jan-18 19:00N 33°54' W 123°18'8 7.8 340 / 121026.6
2020-Jan-18 18:00N 33°48' W 123°24'1211.6 340 / 141026.7
2020-Jan-18 17:00N 33°42' W 123°36'0 0.0 340 / 121026.7
2020-Jan-18 16:00N 33°42' W 123°36'5 5.0 030 / 91026.3
2020-Jan-18 15:00N 33°42' W 123°42'1211.7 360 / 71025.6
2020-Jan-18 14:00N 33°36' W 123°54'8 7.8 1025.2
2020-Jan-18 13:00N 33°30' W 124°00'1010.0 360 / 31025.0
2020-Jan-18 12:00N 33°30' W 124°12'1211.7 150 / 31024.9
2020-Jan-18 11:00N 33°24' W 124°24'5 5.0 150 / 41025.2
2020-Jan-18 10:00N 33°24' W 124°18'6 6.0 130 / 21025.2
2020-Jan-18 09:00N 33°18' W 124°18'8 7.8 110 / 51025.6
2020-Jan-18 08:00N 33°12' W 124°12'1313.0 090 / 41026.1
2020-Jan-18 07:00N 33°00' W 124°06'8 7.8 090 / 71026.2
2020-Jan-18 06:00N 32°54' W 124°00'8 7.8 050 / 31026.4
2020-Jan-18 05:00N 32°48' W 123°54'0 0.0 060 / 11025.9
2020-Jan-18 04:00N 32°48' W 123°54'8 7.8 080 / 51025.8
2020-Jan-18 03:00N 32°54' W 123°48'1010.1 060 / 51026.0
2020-Jan-18 02:00N 32°54' W 123°36'8 7.8 010 / 51025.6
2020-Jan-18 01:00N 33°00' W 123°30'1211.7 030 / 41025.4
2020-Jan-18 00:00N 33°06' W 123°18'5 5.0 040 / 51025.2
2020-Jan-17 23:00N 33°06' W 123°12'6 6.0 050 / 51025.6
2020-Jan-17 22:00N 33°12' W 123°12'5 5.0 030 / 101025.5
2020-Jan-17 21:00N 33°12' W 123°06'1211.7 010 / 71025.8
2020-Jan-17 20:00N 33°18' W 122°54'1211.7 010 / 101026.6
2020-Jan-17 19:00N 33°24' W 122°42'1211.7 1027.0
2020-Jan-17 18:00N 33°30' W 122°30'5 5.0 010 / 101026.5
2020-Jan-17 17:00N 33°30' W 122°36'5 5.0 320 / 81025.9
2020-Jan-17 16:00N 33°30' W 122°30'5 5.0 020 / 81025.1
2020-Jan-17 15:00N 33°30' W 122°24'1211.7 010 / 111024.3
2020-Jan-17 14:00N 33°36' W 122°12'8 7.8 350 / 131023.7
2020-Jan-17 13:00N 33°42' W 122°06'1211.6 350 / 101023.2
2020-Jan-17 12:00N 33°48' W 121°54'0 0.0 350 / 131022.7
2020-Jan-17 11:00N 33°48' W 121°54'5 5.0 350 / 111023.0
2020-Jan-17 10:00N 33°48' W 121°48'8 7.8 350 / 121022.3
2020-Jan-17 09:00N 33°54' W 121°42'1211.6 340 / 151021.6
2020-Jan-17 08:00N 34°00' W 121°30'10 9.9 340 / 151021.3
2020-Jan-17 07:00N 34°00' W 121°18'8 7.8 320 / 101020.9
2020-Jan-17 06:00N 34°06' W 121°12'0 0.0 290 / 91020.2
2020-Jan-17 05:00N 34°06' W 121°12'0 0.0 310 / 41019.5
2020-Jan-17 04:00N 34°06' W 121°12'1211.6 350 / 91018.8
2020-Jan-17 03:00N 34°12' W 121°00'8 7.8 350 / 31017.8
2020-Jan-17 02:00N 34°18' W 120°54'5 5.0 010 / 151017.0
2020-Jan-17 01:00N 34°18' W 120°48'0 0.0 350 / 211016.1
2020-Jan-17 00:00N 34°18' W 120°48'1211.6 160 / 281014.5
2020-Jan-16 23:00N 34°24' W 120°36'8 7.8 140 / 331014.1
2020-Jan-16 22:00N 34°30' W 120°30'6 6.0 130 / 151015.1
2020-Jan-16 21:00N 34°24' W 120°30'0 0.0 150 / 161015.6
2020-Jan-16 20:00N 34°24' W 120°30'10 9.9 150 / 121016.8
2020-Jan-16 19:00N 34°24' W 120°18'10 9.9 160 / 141018.0
2020-Jan-16 18:00N 34°24' W 120°06'10 9.9 180 / 171017.510.8 12.2 8.115.1
2020-Jan-16 17:00N 34°24' W 119°54'5 5.0 190 / 91016.9
2020-Jan-16 16:00N 34°24' W 119°48'5 5.0 230 / 31016.7
2020-Jan-16 15:00N 34°24' W 119°42'0 0.0 210 / 51016.5
2020-Jan-16 14:00N 34°24' W 119°42'212.3 210 / 91016.7
2020-Jan-16 13:50N 34°22' W 119°43'910.4
2020-Jan-16 13:00N 34°19' W 119°53'1383.3
2020-Jan-16 13:00N 34°18' W 119°54'4 7.7 230 / 81016.2
2020-Jan-16 12:30N 34°17' W 119°58'3 5.5
2020-Jan-16 12:00N 34°16' W 120°02'2136.6
2020-Jan-16 12:00N 34°18' W 120°00'0 0.0 270 / 71015.8
2020-Jan-16 11:00N 34°18' W 120°00'0 0.0 270 / 81015.9
2020-Jan-16 10:00N 34°18' W 120°00'10 9.9 250 / 61015.6
2020-Jan-16 09:00N 34°18' W 119°48'10 9.9 230 / 41015.6
2020-Jan-16 08:00N 34°18' W 119°36'10 9.9 230 / 31016.0
2020-Jan-16 07:00N 34°18' W 119°24'6 6.0 350 / 11016.6
2020-Jan-16 06:00N 34°12' W 119°24'0 0.0 330 / 41016.2
2020-Jan-16 05:00N 34°12' W 119°24'3 6.1 310 / 71015.8
2020-Jan-16 04:26N 34°12' W 119°28'2 3.5
2020-Jan-16 04:00N 34°12' W 119°30'0 0.0 290 / 81015.6
2020-Jan-16 03:00N 34°12' W 119°30'1 5.5 280 / 71015.6
2020-Jan-16 02:45N 34°11' W 119°30'2 9.1
2020-Jan-16 02:30N 34°09' W 119°29'3 5.2
2020-Jan-16 02:00N 34°06' W 119°30'714.8 290 / 71015.3
2020-Jan-16 01:30N 33°59' W 119°30'713.9
2020-Jan-16 01:00N 33°54' W 119°36'1010.0 230 / 71015.3
2020-Jan-16 00:00N 33°54' W 119°48'4 7.0 250 / 61015.3
2020-Jan-15 23:28N 33°54' W 119°52'613.1
2020-Jan-15 23:00N 33°54' W 120°00'4 8.2 260 / 81014.9
2020-Jan-15 22:30N 33°53' W 120°05'612.1
2020-Jan-15 22:00N 33°54' W 120°12'5 5.0 300 / 91015.4
2020-Jan-15 21:00N 33°54' W 120°06'1211.6 310 / 61015.7
2020-Jan-15 20:00N 33°48' W 120°18'31908.4 310 / 171016.4
2020-Jan-15 19:59N 33°49' W 120°15'510.4
2020-Jan-15 19:30N 33°47' W 120°21'3 5.2
2020-Jan-15 19:00N 33°48' W 120°24'3 3.4 310 / 151017.4
2020-Jan-15 18:00N 33°45' W 120°26'3221.1
2020-Jan-15 18:00N 33°48' W 120°24'6 6.0 330 / 141017.6
2020-Jan-15 17:00N 33°42' W 120°24'1010.0 320 / 131017.7
2020-Jan-15 16:00N 33°42' W 120°36'8 7.8 310 / 231017.6
2020-Jan-15 15:00N 33°36' W 120°42'5 5.0 300 / 221017.210.8 11.7 9.713.3
2020-Jan-15 14:00N 33°36' W 120°48'21402.3 340 / 201017.2
2020-Jan-15 13:59N 33°35' W 120°46'2 2.3
2020-Jan-15 13:00N 33°36' W 120°48'8 7.8 340 / 201016.9
2020-Jan-15 12:00N 33°30' W 120°54'8 7.8 310 / 231017.7
2020-Jan-15 11:00N 33°24' W 121°00'1010.0 320 / 301018.5
2020-Jan-15 10:00N 33°24' W 121°12'1211.7 320 / 241019.4
2020-Jan-15 09:00N 33°18' W 121°24'8 7.8 320 / 281019.8
2020-Jan-15 08:00N 33°12' W 121°30'5 5.0 340 / 191020.6
2020-Jan-15 07:00N 33°12' W 121°24'5 5.0 350 / 201021.2
2020-Jan-15 06:00N 33°12' W 121°30'1211.7 320 / 261023.0 5.4
2020-Jan-15 05:00N 33°06' W 121°42'5 5.0 320 / 331021.4
2020-Jan-15 04:00N 33°06' W 121°48'1211.7 310 / 281021.5
2020-Jan-15 03:00N 33°00' W 122°00'1211.7 330 / 261021.7
2020-Jan-15 02:00N 32°54' W 122°12'5 5.0 1021.7
2020-Jan-15 01:00N 32°54' W 122°06'5 5.0 1021.6
2020-Jan-15 00:00N 32°54' W 122°12'1211.7 330 / 261021.7
2020-Jan-14 23:00N 32°48' W 122°24'8 7.8 340 / 271021.2
2020-Jan-14 22:00N 32°42' W 122°30'1211.8 350 / 261022.2
2020-Jan-14 21:00N 32°36' W 122°42'5 5.1 340 / 241022.5
2020-Jan-14 20:00N 32°36' W 122°48'0 0.0 020 / 141024.2
2020-Jan-14 19:00N 32°36' W 122°48'5 5.1 340 / 141025.5
2020-Jan-14 18:00N 32°36' W 122°54'8 7.8 340 / 191025.7
2020-Jan-14 17:00N 32°30' W 123°00'1211.8 340 / 141025.6
2020-Jan-14 16:00N 32°24' W 123°12'1211.8 350 / 211025.1
2020-Jan-14 15:00N 32°18' W 123°24'5 5.1 340 / 191024.6
2020-Jan-14 14:00N 32°18' W 123°30'6 6.0 010 / 181024.0
2020-Jan-14 13:00N 32°12' W 123°30'5 5.1 340 / 191023.2
2020-Jan-14 12:00N 32°12' W 123°36'8 7.9 330 / 211023.3
2020-Jan-14 11:00N 32°06' W 123°42'1010.2 330 / 211023.2
2020-Jan-14 10:00N 32°06' W 123°54'1211.8 330 / 201023.6
2020-Jan-14 09:00N 32°00' W 124°06'8 7.9 330 / 221023.9 5.4 13.311.415.2
2020-Jan-14 08:00N 31°54' W 124°12'0 0.0 010 / 201024.3
2020-Jan-14 07:00N 31°54' W 124°12'8 7.9 020 / 121024.6
2020-Jan-14 06:00N 31°48' W 124°06'8 7.9 360 / 131025.9 5.4
2020-Jan-14 05:00N 31°42' W 124°00'   010 / 171023.8

Dump ship's entire track history